Time;durP1;ratioP1;P1;durP2;ratioP2;P2;SDS_P1;SDS_P2;PMS_P1;PMS_P2;Temp;Humidity;BMP_temperature;BMP_pressure;BME280_temperature;BME280_humidity;BME280_pressure;Samples;Min_cycle;Max_cycle;Signal;HPM_P1;HPM_P2
2022/08/12 04:01:41;;;;;;;3.40;3.20;;;19.00;65.70;;;;;;5427454;23;20885;-62
2022/08/12 04:04:10;;;;;;;3.50;3.30;;;18.90;66.10;;;;;;4996020;28;20504;-62
2022/08/12 04:06:43;;;;;;;3.43;3.23;;;18.90;66.30;;;;;;4996006;28;20531;-62
2022/08/12 04:09:10;;;;;;;4.47;3.13;;;18.90;66.40;;;;;;4995922;28;20442;-62
2022/08/12 04:14:23;;;;;;;3.23;3.03;;;18.90;67.10;;;;;;4995581;28;20480;-63
2022/08/12 04:16:51;;;;;;;3.60;3.30;;;18.90;67.20;;;;;;4995730;28;20458;-63
2022/08/12 04:19:19;;;;;;;3.20;3.00;;;18.90;67.50;;;;;;4995604;28;20465;-63
2022/08/12 04:21:47;;;;;;;3.43;3.23;;;18.90;67.70;;;;;;4995550;28;20486;-63
2022/08/12 04:24:14;;;;;;;3.33;3.00;;;18.80;67.70;;;;;;4995425;28;20488;-63
2022/08/12 04:26:40;;;;;;;3.13;2.80;;;18.80;68.00;;;;;;4995538;28;20480;-63
2022/08/12 04:29:09;;;;;;;2.97;2.77;;;18.80;68.60;;;;;;4995525;28;20476;-62
2022/08/12 04:31:38;;;;;;;3.47;3.17;;;18.70;68.70;;;;;;4995347;28;20484;-63
2022/08/12 04:34:08;;;;;;;6.57;3.17;;;18.70;68.80;;;;;;4995730;28;20791;-63
2022/08/12 04:36:37;;;;;;;4.80;2.90;;;18.70;69.20;;;;;;4995520;28;20481;-64
2022/08/12 04:39:06;;;;;;;3.27;3.07;;;18.70;69.50;;;;;;4995305;28;20446;-63
2022/08/12 04:41:34;;;;;;;5.10;3.53;;;18.70;69.50;;;;;;4994596;28;20872;-63
2022/08/12 04:44:01;;;;;;;3.40;3.20;;;18.70;69.60;;;;;;4995532;28;20454;-64
2022/08/12 04:46:28;;;;;;;3.00;2.80;;;18.80;69.80;;;;;;4996446;28;20464;-63
2022/08/12 04:48:55;;;;;;;3.37;3.17;;;18.70;69.90;;;;;;4995762;28;20524;-63
2022/08/12 04:51:23;;;;;;;4.23;3.47;;;18.70;70.20;;;;;;4995633;28;20473;-63
2022/08/12 04:53:51;;;;;;;3.50;3.20;;;18.80;70.60;;;;;;4995828;28;20508;-64
2022/08/12 04:56:18;;;;;;;5.03;2.93;;;18.70;71.30;;;;;;4995681;28;20457;-63
2022/08/12 04:58:45;;;;;;;3.10;2.80;;;18.70;71.10;;;;;;4994757;28;20460;-63
2022/08/12 05:01:12;;;;;;;5.40;3.10;;;18.70;72.00;;;;;;4994669;28;20544;-63
2022/08/12 05:03:40;;;;;;;3.23;3.03;;;18.70;71.10;;;;;;4995200;28;20453;-63
2022/08/12 05:06:08;;;;;;;3.30;3.00;;;18.80;71.60;;;;;;4994951;28;20481;-63
2022/08/12 05:08:36;;;;;;;4.47;3.30;;;18.80;71.80;;;;;;4995105;28;20450;-64
2022/08/12 05:11:04;;;;;;;3.37;3.07;;;18.80;71.60;;;;;;4995213;28;20536;-63
2022/08/12 05:13:36;;;;;;;5.50;3.30;;;18.90;78.30;;;;;;4995171;28;20464;-63
2022/08/12 05:16:04;;;;;;;4.23;3.03;;;19.00;87.10;;;;;;4995345;28;20461;-63
2022/08/12 05:18:32;;;;;;;3.60;3.27;;;19.20;76.60;;;;;;4994766;28;21000;-64
2022/08/12 05:20:59;;;;;;;4.50;3.40;;;19.30;76.50;;;;;;4995168;28;20473;-63
2022/08/12 05:23:25;;;;;;;3.27;3.07;;;19.40;77.10;;;;;;4996040;28;20492;-64
2022/08/12 05:25:55;;;;;;;3.37;3.07;;;19.50;73.40;;;;;;4998378;28;20984;-64
2022/08/12 05:28:23;;;;;;;3.20;3.00;;;19.60;70.90;;;;;;4997424;28;20485;-64
2022/08/12 05:30:50;;;;;;;4.07;3.30;;;19.70;70.70;;;;;;4994659;28;20477;-64
2022/08/12 05:33:17;;;;;;;3.43;2.73;;;19.80;70.40;;;;;;4994559;28;20461;-63
2022/08/12 05:35:48;;;;;;;3.63;3.33;;;19.80;70.20;;;;;;4994350;28;20464;-63
2022/08/12 05:41:05;;;;;;;5.73;3.40;;;20.00;70.20;;;;;;4994283;28;21007;-63
2022/08/12 05:43:33;;;;;;;6.40;3.67;;;20.00;69.80;;;;;;4994563;28;20442;-63
2022/08/12 05:45:59;;;;;;;3.67;3.47;;;20.00;69.20;;;;;;4994339;28;20504;-64
2022/08/12 05:48:27;;;;;;;4.83;3.80;;;20.10;69.60;;;;;;4994523;28;20581;-63
2022/08/12 05:50:55;;;;;;;5.70;3.30;;;20.10;69.20;;;;;;4994314;28;20557;-63
2022/08/12 05:53:22;;;;;;;3.97;3.57;;;20.20;69.40;;;;;;4994123;28;20541;-63
2022/08/12 05:55:52;;;;;;;3.90;3.57;;;20.30;69.60;;;;;;4994590;28;20769;-64
2022/08/12 05:58:20;;;;;;;3.20;3.00;;;20.40;69.20;;;;;;4994122;28;20541;-63
2022/08/12 06:00:47;;;;;;;3.77;3.50;;;20.60;69.00;;;;;;4993839;28;20974;-63
2022/08/12 06:03:16;;;;;;;3.73;3.53;;;20.60;68.30;;;;;;4994107;28;20441;-63
2022/08/12 06:05:45;;;;;;;3.53;3.33;;;20.70;68.50;;;;;;4994180;28;20481;-63
2022/08/12 06:08:14;;;;;;;3.57;3.27;;;20.90;67.70;;;;;;4994091;28;20880;-64
2022/08/12 06:10:40;;;;;;;7.20;3.57;;;21.00;67.40;;;;;;4994658;28;20548;-63
2022/08/12 06:13:08;;;;;;;5.67;2.97;;;21.20;66.20;;;;;;4994165;28;20458;-64
2022/08/12 06:15:36;;;;;;;3.87;3.57;;;21.40;68.30;;;;;;4993736;28;20959;-63
2022/08/12 06:18:06;;;;;;;3.40;3.10;;;21.60;67.80;;;;;;4994182;28;20524;-63
2022/08/12 06:20:32;;;;;;;3.30;3.00;;;22.00;69.40;;;;;;4993550;28;20473;-63
2022/08/12 06:23:00;;;;;;;3.47;3.17;;;22.40;64.70;;;;;;4993822;28;20516;-63
2022/08/12 06:25:28;;;;;;;7.90;3.40;;;22.90;63.00;;;;;;4993423;28;20476;-64
2022/08/12 06:27:57;;;;;;;3.50;3.00;;;23.40;61.10;;;;;;4993727;28;20462;-65
2022/08/12 06:30:25;;;;;;;4.73;3.20;;;24.00;59.40;;;;;;4993223;28;20800;-65
2022/08/12 06:32:53;;;;;;;4.90;3.27;;;24.50;58.40;;;;;;4993665;28;20488;-65
2022/08/12 06:35:20;;;;;;;5.20;3.70;;;24.90;57.40;;;;;;4993622;28;20450;-65
2022/08/12 06:37:48;;;;;;;3.10;2.90;;;25.40;57.00;;;;;;4993282;28;21025;-65
2022/08/12 06:42:46;;;;;;;6.13;3.60;;;25.80;55.70;;;;;;4993643;28;20480;-65
2022/08/12 06:43:02;;;;;;;5.37;2.87;;;26.40;54.70;;;;;;4993276;28;20449;-65
2022/08/12 06:45:28;;;;;;;3.50;3.30;;;26.70;53.50;;;;;;4993529;28;20566;-65
2022/08/12 06:47:58;;;;;;;3.47;3.17;;;27.00;52.70;;;;;;4993599;28;20454;-65
2022/08/12 06:50:29;;;;;;;3.00;2.80;;;27.20;52.50;;;;;;4993283;28;20798;-64
2022/08/12 06:52:56;;;;;;;3.10;2.80;;;27.30;52.70;;;;;;4993859;28;20532;-65
2022/08/12 06:55:24;;;;;;;3.03;2.83;;;27.60;53.70;;;;;;4993531;28;20454;-65
2022/08/12 06:57:53;;;;;;;3.63;2.90;;;28.10;51.80;;;;;;4994209;28;20457;-65
2022/08/12 07:00:22;;;;;;;7.63;3.07;;;28.30;51.10;;;;;;4993439;28;20553;-65
2022/08/12 07:02:50;;;;;;;3.77;2.80;;;28.60;50.60;;;;;;4993542;28;20442;-65
2022/08/12 07:05:23;;;;;;;2.50;2.40;;;28.80;50.20;;;;;;4994912;28;20484;-65
2022/08/12 07:08:05;;;;;;;3.43;2.80;;;29.00;49.40;;;;;;4996777;28;20913;-65
2022/08/12 07:10:33;;;;;;;5.97;3.00;;;29.20;48.70;;;;;;4997086;28;20499;-65
2022/08/12 07:13:00;;;;;;;8.03;2.90;;;29.50;48.40;;;;;;4997077;28;20530;-65
2022/08/12 07:15:29;;;;;;;3.50;3.20;;;29.80;47.60;;;;;;4997040;28;20499;-65
2022/08/12 07:17:59;;;;;;;3.80;3.07;;;30.10;47.90;;;;;;4996973;28;20545;-65
2022/08/12 07:20:29;;;;;;;6.63;3.50;;;30.20;47.00;;;;;;4996801;28;20796;-65
2022/08/12 07:22:56;;;;;;;2.40;2.30;;;30.20;47.70;;;;;;4996676;28;20596;-65
2022/08/12 07:25:31;;;;;;;4.30;2.70;;;30.60;46.60;;;;;;4996802;28;20473;-65
2022/08/12 07:28:02;;;;;;;6.20;2.60;;;31.00;46.10;;;;;;4996857;28;20441;-65
2022/08/12 07:30:30;;;;;;;4.90;2.80;;;31.00;45.60;;;;;;4996573;28;20437;-65
2022/08/12 07:33:00;;;;;;;3.33;3.03;;;31.00;45.30;;;;;;4996325;28;20940;-65
2022/08/12 07:35:29;;;;;;;4.70;2.80;;;31.30;45.50;;;;;;4996599;28;20450;-65
2022/08/12 07:37:56;;;;;;;2.67;2.47;;;31.60;45.90;;;;;;4996483;28;20457;-65
2022/08/12 07:40:24;;;;;;;2.27;2.10;;;31.70;44.40;;;;;;4996533;28;20556;-65
2022/08/12 07:42:51;;;;;;;3.50;2.47;;;32.00;43.60;;;;;;4996481;28;20949;-65
2022/08/12 07:45:20;;;;;;;2.67;2.47;;;32.30;43.80;;;;;;4996426;28;20499;-65
2022/08/12 07:47:48;;;;;;;3.90;2.47;;;31.90;43.50;;;;;;4996520;28;20450;-65
2022/08/12 07:50:17;;;;;;;2.60;2.50;;;32.20;43.70;;;;;;4996380;28;20458;-65
2022/08/12 07:52:47;;;;;;;5.03;3.40;;;32.60;42.80;;;;;;4996018;28;20817;-65
2022/08/12 07:55:16;;;;;;;3.20;2.43;;;32.90;42.60;;;;;;4996546;28;20882;-65
2022/08/12 07:57:56;;;;;;;3.30;2.80;;;33.00;43.10;;;;;;4996244;28;20508;-65
2022/08/12 08:00:24;;;;;;;3.10;2.70;;;33.30;42.10;;;;;;4996146;28;20812;-65
2022/08/12 08:02:53;;;;;;;2.90;2.70;;;33.60;41.40;;;;;;4996147;28;20445;-66
2022/08/12 08:05:21;;;;;;;8.17;2.50;;;34.10;41.50;;;;;;4995974;28;20458;-66
2022/08/12 08:07:52;;;;;;;7.07;2.37;;;34.60;40.50;;;;;;4995891;28;20528;-66
2022/08/12 08:10:19;;;;;;;3.83;2.60;;;35.00;39.80;;;;;;4996683;28;20447;-66
2022/08/12 08:12:56;;;;;;;2.17;2.07;;;35.30;39.50;;;;;;4996569;28;20567;-66
2022/08/12 08:15:24;;;;;;;2.37;2.17;;;35.40;38.40;;;;;;4995857;28;20495;-66
2022/08/12 08:17:58;;;;;;;2.50;2.40;;;35.60;38.40;;;;;;4996776;28;20466;-66
2022/08/12 08:20:27;;;;;;;2.40;2.20;;;35.70;38.50;;;;;;4995737;28;20441;-65
2022/08/12 08:22:57;;;;;;;2.77;2.60;;;35.60;38.00;;;;;;4995552;28;20461;-65
2022/08/12 08:25:29;;;;;;;2.30;2.20;;;34.90;38.40;;;;;;4995323;28;20565;-64
2022/08/12 08:27:57;;;;;;;2.47;2.27;;;34.70;39.00;;;;;;4995752;28;20445;-65
2022/08/12 08:30:24;;;;;;;2.07;1.97;;;35.00;37.70;;;;;;4995633;28;20540;-65
2022/08/12 08:32:51;;;;;;;2.50;2.40;;;35.10;37.60;;;;;;4995237;28;20484;-65
2022/08/12 08:35:18;;;;;;;2.70;2.40;;;35.20;37.30;;;;;;4995508;28;20940;-65
2022/08/12 08:37:45;;;;;;;3.20;2.13;;;35.10;37.00;;;;;;4995389;28;20936;-65
2022/08/12 08:42:58;;;;;;;2.43;1.80;;;35.50;36.80;;;;;;4995447;28;20476;-65
2022/08/12 08:45:24;;;;;;;2.50;2.40;;;35.90;37.00;;;;;;4995115;28;20459;-65
2022/08/12 08:47:53;;;;;;;2.40;2.20;;;36.00;36.80;;;;;;4995346;28;20457;-65
2022/08/12 08:50:20;;;;;;;3.13;2.37;;;36.10;36.40;;;;;;4995147;28;20545;-65
2022/08/12 08:52:48;;;;;;;2.33;2.23;;;36.60;37.30;;;;;;4995212;28;20448;-65
2022/08/12 08:55:17;;;;;;;1.57;1.57;;;37.20;35.30;;;;;;4995117;28;20865;-65
2022/08/12 08:57:48;;;;;;;2.70;2.17;;;37.50;34.60;;;;;;4995254;28;20516;-65
2022/08/12 09:00:16;;;;;;;3.07;2.23;;;37.60;35.30;;;;;;4995095;28;20494;-65
2022/08/12 09:02:43;;;;;;;2.60;2.40;;;38.10;34.00;;;;;;4995250;28;20442;-65
2022/08/12 09:05:10;;;;;;;1.97;1.87;;;38.20;33.60;;;;;;4995054;28;20460;-65
2022/08/12 09:07:45;;;;;;;5.10;2.30;;;37.80;34.40;;;;;;4994912;28;20483;-65
2022/08/12 09:10:15;;;;;;;2.53;2.33;;;38.10;34.10;;;;;;4994782;28;20459;-65
2022/08/12 09:15:29;;;;;;;4.63;2.53;;;38.30;34.10;;;;;;4995397;28;20522;-66
2022/08/12 09:17:57;;;;;;;2.50;1.80;;;38.50;32.50;;;;;;4994707;28;20453;-66
2022/08/12 09:20:25;;;;;;;2.63;1.90;;;38.50;32.50;;;;;;4994997;28;20454;-66
2022/08/12 09:22:52;;;;;;;1.40;1.40;;;38.30;33.00;;;;;;4994772;28;20512;-66
2022/08/12 09:25:19;;;;;;;2.67;2.00;;;38.50;32.40;;;;;;4994791;28;20960;-68
2022/08/12 09:27:47;;;;;;;2.40;2.17;;;38.60;32.60;;;;;;4996746;28;20473;-66
2022/08/12 09:30:16;;;;;;;2.03;1.93;;;38.50;32.00;;;;;;4999856;28;20458;-66
2022/08/12 09:32:49;;;;;;;2.57;2.03;;;38.60;31.50;;;;;;4998202;28;20449;-67
2022/08/12 09:35:18;;;;;;;3.00;2.10;;;38.60;31.20;;;;;;4994884;28;20438;-67
2022/08/12 09:37:45;;;;;;;2.57;1.90;;;38.60;33.00;;;;;;4994756;28;20556;-66
2022/08/12 09:40:13;;;;;;;3.80;1.87;;;38.80;32.30;;;;;;4994829;28;20503;-67
2022/08/12 09:45:25;;;;;;;2.10;2.00;;;38.40;30.70;;;;;;4994694;28;20492;-66
2022/08/12 09:47:53;;;;;;;5.43;1.53;;;37.80;30.50;;;;;;4994410;28;20910;-65
2022/08/12 09:50:21;;;;;;;2.10;1.90;;;37.70;32.10;;;;;;4994358;28;20479;-66
2022/08/12 09:52:51;;;;;;;2.50;2.00;;;37.90;31.30;;;;;;4994760;28;20449;-66
2022/08/12 09:55:18;;;;;;;1.93;1.83;;;38.00;31.30;;;;;;4994909;28;20496;-66
2022/08/12 09:57:45;;;;;;;1.93;1.83;;;37.90;31.70;;;;;;4994494;28;20456;-66
2022/08/12 10:00:13;;;;;;;2.70;1.80;;;37.80;32.00;;;;;;4994345;28;20519;-66
2022/08/12 10:02:58;;;;;;;2.43;1.60;;;37.60;31.50;;;;;;4994113;28;20991;-66
2022/08/12 10:05:25;;;;;;;2.00;1.90;;;37.60;31.80;;;;;;4994219;28;20441;-65
2022/08/12 10:07:51;;;;;;;2.23;1.90;;;37.80;32.80;;;;;;4994218;28;20481;-68
2022/08/12 10:10:18;;;;;;;2.27;1.87;;;37.80;31.00;;;;;;4994554;28;20464;-66
2022/08/12 10:15:31;;;;;;;2.20;1.83;;;38.30;30.80;;;;;;4994432;28;20509;-66
2022/08/12 10:17:59;;;;;;;1.60;1.50;;;38.30;30.40;;;;;;4994230;28;20455;-67
2022/08/12 10:20:26;;;;;;;2.17;1.90;;;38.30;31.40;;;;;;4994084;28;20457;-66
2022/08/12 10:22:58;;;;;;;5.30;2.37;;;38.50;30.80;;;;;;4994066;28;20457;-66
2022/08/12 10:30:55;;;;;;;2.03;1.70;;;38.60;30.00;;;;;;4993945;28;20987;-66
2022/08/12 10:33:24;;;;;;;5.40;2.17;;;37.80;30.00;;;;;;4993790;28;20908;-66
2022/08/12 10:35:52;;;;;;;2.27;2.07;;;37.30;29.80;;;;;;4994130;28;20464;-66
2022/08/12 10:38:19;;;;;;;1.30;1.30;;;37.00;31.10;;;;;;4994063;28;20449;-65
2022/08/12 10:46:16;;;;;;;2.00;1.53;;;36.90;31.50;;;;;;4997793;28;20631;-66
2022/08/12 10:48:50;;;;;;;3.30;1.93;;;36.40;31.60;;;;;;4997770;28;20456;-66
2022/08/12 10:51:18;;;;;;;1.90;1.80;;;36.10;32.00;;;;;;4997834;28;20478;-66
2022/08/12 10:53:45;;;;;;;1.90;1.80;;;35.90;32.90;;;;;;4997403;28;21014;-66
2022/08/12 10:56:12;;;;;;;2.27;1.80;;;36.40;31.20;;;;;;4997360;28;20927;-66
2022/08/12 10:58:39;;;;;;;1.97;1.87;;;36.80;30.90;;;;;;4997534;28;20456;-67
2022/08/12 11:01:09;;;;;;;1.83;1.73;;;37.50;31.10;;;;;;4997381;28;20555;-66
2022/08/12 11:03:36;;;;;;;2.27;1.80;;;37.60;30.50;;;;;;4997068;28;20461;-66
2022/08/12 11:06:06;;;;;;;1.70;1.60;;;37.70;30.00;;;;;;4997030;28;20457;-66
2022/08/12 11:08:36;;;;;;;2.43;1.53;;;38.00;30.00;;;;;;4997156;28;20937;-66
2022/08/12 11:11:04;;;;;;;2.33;2.23;;;38.00;30.90;;;;;;4997211;28;20473;-66
2022/08/12 11:13:30;;;;;;;2.60;1.60;;;38.20;30.40;;;;;;4997180;28;20456;-66
2022/08/12 11:15:57;;;;;;;2.17;2.03;;;38.10;30.40;;;;;;4997141;28;20456;-65
2022/08/12 11:18:24;;;;;;;2.17;1.80;;;37.70;30.70;;;;;;4997524;28;20534;-66
2022/08/12 11:20:53;;;;;;;2.83;1.87;;;37.80;31.10;;;;;;4997118;28;20476;-66
2022/08/12 11:23:22;;;;;;;1.63;1.60;;;37.70;30.90;;;;;;4997217;28;20459;-66
2022/08/12 11:25:49;;;;;;;2.10;1.67;;;37.70;30.30;;;;;;4996939;28;20459;-66
2022/08/12 11:28:16;;;;;;;2.07;1.90;;;37.00;30.60;;;;;;4996886;28;20836;-66
2022/08/12 11:30:44;;;;;;;2.00;1.87;;;36.70;30.10;;;;;;4996510;28;20988;-66
2022/08/12 11:33:12;;;;;;;3.20;1.53;;;36.40;30.70;;;;;;4996908;28;20461;-66
2022/08/12 11:35:40;;;;;;;1.50;1.40;;;35.90;31.50;;;;;;4996234;28;21011;-65
2022/08/12 11:38:07;;;;;;;2.13;1.93;;;35.60;32.70;;;;;;4996333;28;20561;-65
2022/08/12 11:40:35;;;;;;;1.90;1.80;;;35.40;32.50;;;;;;4996506;28;20539;-64
2022/08/12 11:43:02;;;;;;;2.20;2.00;;;35.50;33.20;;;;;;4996525;28;20463;-66
2022/08/12 11:45:30;;;;;;;1.77;1.67;;;35.50;32.50;;;;;;4996604;28;20507;-66
2022/08/12 11:47:58;;;;;;;1.90;1.80;;;35.30;31.80;;;;;;4996086;28;20563;-65
2022/08/12 11:50:25;;;;;;;2.00;1.70;;;34.90;32.60;;;;;;4995873;28;20475;-65
2022/08/12 11:52:52;;;;;;;2.80;1.73;;;34.80;34.00;;;;;;4996595;28;20548;-65
2022/08/12 11:55:19;;;;;;;1.77;1.67;;;34.70;33.50;;;;;;4996349;28;20460;-67
2022/08/12 11:57:51;;;;;;;1.90;1.67;;;34.60;33.50;;;;;;4996310;28;20449;-65
2022/08/12 12:00:19;;;;;;;2.27;2.17;;;34.50;33.80;;;;;;4995845;28;20941;-66
2022/08/12 12:02:46;;;;;;;1.87;1.70;;;34.40;34.80;;;;;;4996322;28;20446;-65
2022/08/12 12:05:14;;;;;;;1.60;1.60;;;34.30;33.60;;;;;;4996040;28;21065;-65
2022/08/12 12:07:41;;;;;;;1.83;1.60;;;34.00;34.20;;;;;;4996002;28;20984;-65
2022/08/12 12:10:09;;;;;;;2.40;2.17;;;33.60;34.20;;;;;;4996307;28;20454;-65
2022/08/12 12:12:36;;;;;;;2.00;1.80;;;33.20;34.30;;;;;;4996276;28;20585;-65
2022/08/12 12:15:05;;;;;;;1.93;1.80;;;32.90;35.80;;;;;;4996228;28;20453;-64
2022/08/12 12:17:36;;;;;;;5.33;1.90;;;32.90;34.90;;;;;;4996214;28;20828;-66
2022/08/12 12:20:03;;;;;;;2.37;2.27;;;32.80;35.40;;;;;;4996221;28;20448;-65
2022/08/12 12:22:30;;;;;;;1.67;1.67;;;33.00;36.60;;;;;;4995595;28;21047;-65
2022/08/12 12:24:57;;;;;;;2.03;1.93;;;33.20;35.40;;;;;;4995846;28;20460;-65
2022/08/12 12:27:23;;;;;;;1.90;1.80;;;33.60;36.00;;;;;;4995606;28;20473;-65
2022/08/12 12:29:50;;;;;;;2.10;1.90;;;33.80;34.90;;;;;;4995233;28;20949;-65
2022/08/12 12:32:19;;;;;;;1.90;1.80;;;33.80;34.40;;;;;;4995443;28;20481;-65
2022/08/12 12:34:46;;;;;;;1.73;1.63;;;33.70;34.50;;;;;;4995748;28;20461;-65
2022/08/12 12:37:14;;;;;;;2.10;1.70;;;33.50;35.40;;;;;;4995588;28;20489;-65
2022/08/12 12:39:42;;;;;;;1.67;1.63;;;33.20;35.80;;;;;;4995594;28;20453;-65
2022/08/12 12:42:08;;;;;;;2.00;1.90;;;32.80;35.70;;;;;;4995334;28;20857;-65
2022/08/12 12:44:35;;;;;;;2.97;1.90;;;32.40;36.30;;;;;;4996185;28;20461;-65
2022/08/12 12:47:02;;;;;;;1.93;1.83;;;32.20;36.50;;;;;;5001282;28;20484;-65
2022/08/12 12:49:30;;;;;;;2.10;1.90;;;32.10;37.10;;;;;;5001657;28;20961;-65
2022/08/12 12:51:57;;;;;;;1.90;1.80;;;31.80;36.50;;;;;;4996129;28;20474;-65
2022/08/12 12:54:24;;;;;;;1.87;1.77;;;32.00;36.70;;;;;;4995317;28;20453;-65
2022/08/12 12:56:50;;;;;;;1.63;1.60;;;32.30;37.20;;;;;;4995235;28;20453;-65
2022/08/12 12:59:19;;;;;;;1.80;1.70;;;32.70;36.00;;;;;;4995163;28;20493;-65
2022/08/12 13:01:46;;;;;;;1.60;1.60;;;33.10;35.40;;;;;;4995137;28;20489;-66
2022/08/12 13:04:13;;;;;;;2.93;2.00;;;33.20;35.10;;;;;;4994777;28;20454;-65
2022/08/12 13:06:41;;;;;;;1.80;1.70;;;33.00;35.60;;;;;;4995071;28;20493;-65
2022/08/12 13:09:11;;;;;;;2.70;1.80;;;32.80;35.40;;;;;;4995907;28;20461;-65
2022/08/12 13:11:38;;;;;;;2.00;1.83;;;32.70;35.80;;;;;;4994964;28;20906;-65
2022/08/12 13:14:05;;;;;;;2.93;1.80;;;32.60;36.50;;;;;;4994849;28;20458;-65
2022/08/12 13:16:31;;;;;;;2.20;1.77;;;32.30;36.20;;;;;;4995183;28;20540;-65
2022/08/12 13:18:58;;;;;;;2.20;2.03;;;32.00;36.00;;;;;;4994737;28;20481;-64
2022/08/12 13:21:31;;;;;;;2.10;1.90;;;31.80;36.20;;;;;;4994687;28;20528;-65
2022/08/12 13:24:02;;;;;;;2.13;1.93;;;31.40;36.90;;;;;;4994901;28;20537;-64
2022/08/12 13:26:33;;;;;;;2.97;1.60;;;31.20;37.40;;;;;;4994586;28;20442;-65
2022/08/12 13:29:00;;;;;;;1.50;1.50;;;31.30;37.50;;;;;;4994543;28;20466;-65
2022/08/12 13:31:27;;;;;;;2.10;1.90;;;31.50;36.60;;;;;;4994256;28;20474;-65
2022/08/12 13:33:54;;;;;;;1.50;1.50;;;31.80;36.40;;;;;;4994680;28;20457;-65
2022/08/12 13:36:21;;;;;;;1.93;1.80;;;32.10;36.60;;;;;;4994135;28;20458;-65
2022/08/12 13:38:50;;;;;;;1.80;1.73;;;32.20;35.70;;;;;;4994156;28;20450;-65
2022/08/12 13:41:32;;;;;;;1.47;1.47;;;32.40;35.60;;;;;;4994220;28;20872;-64
2022/08/12 13:43:59;;;;;;;2.10;1.90;;;32.30;36.00;;;;;;4994191;28;20873;-65
2022/08/12 13:46:26;;;;;;;2.43;1.80;;;32.10;36.80;;;;;;4994456;28;20489;-65
2022/08/12 13:48:55;;;;;;;2.17;1.53;;;32.00;36.30;;;;;;4993910;28;21099;-63
2022/08/12 13:51:22;;;;;;;1.90;1.70;;;32.10;37.90;;;;;;4993210;28;20876;-64
2022/08/12 13:53:49;;;;;;;1.80;1.70;;;32.30;36.20;;;;;;4994211;28;20210;-64
2022/08/12 13:56:17;;;;;;;2.33;1.37;;;32.50;37.10;;;;;;4993808;28;21008;-63
2022/08/12 13:58:50;;;;;;;8.23;2.00;;;32.70;35.40;;;;;;4993926;28;20910;-63
2022/08/12 14:01:18;;;;;;;4.77;1.60;;;32.70;35.60;;;;;;4993752;28;21047;-64
2022/08/12 14:03:45;;;;;;;2.80;2.13;;;32.80;35.80;;;;;;4994499;28;20516;-64
2022/08/12 14:06:12;;;;;;;2.70;1.40;;;32.90;35.70;;;;;;4994033;28;20458;-65
2022/08/12 14:08:39;;;;;;;4.43;1.80;;;33.00;35.70;;;;;;4994084;28;20481;-65
2022/08/12 14:11:06;;;;;;;2.67;1.70;;;32.90;35.00;;;;;;4993877;28;20477;-65
2022/08/12 14:13:36;;;;;;;3.10;2.30;;;32.60;35.30;;;;;;4993600;28;20457;-65
2022/08/12 14:16:03;;;;;;;1.80;1.70;;;32.40;36.00;;;;;;4994945;28;20441;-64
2022/08/12 14:18:33;;;;;;;4.07;1.57;;;32.20;36.20;;;;;;4993962;28;20457;-64
2022/08/12 14:21:02;;;;;;;1.57;1.50;;;31.90;35.80;;;;;;4993884;28;20473;-64
2022/08/12 14:23:31;;;;;;;1.47;1.37;;;31.80;35.80;;;;;;4993563;28;21015;-65
2022/08/12 14:25:59;;;;;;;3.43;1.80;;;31.70;35.10;;;;;;4993829;28;20454;-65
2022/08/12 14:28:26;;;;;;;3.83;1.63;;;31.60;35.60;;;;;;4993778;28;20575;-64
2022/08/12 14:30:59;;;;;;;2.10;1.87;;;31.50;35.90;;;;;;4993727;28;20474;-64
2022/08/12 14:33:28;;;;;;;7.20;2.10;;;31.40;35.90;;;;;;4993797;28;20438;-64
2022/08/12 14:35:57;;;;;;;2.83;1.77;;;31.40;37.10;;;;;;4993771;28;20453;-64
2022/08/12 14:38:25;;;;;;;1.60;1.60;;;31.30;37.60;;;;;;4993683;28;20461;-64
2022/08/12 14:40:55;;;;;;;2.13;1.67;;;31.30;37.20;;;;;;4993410;28;20490;-64
2022/08/12 14:43:22;;;;;;;3.80;2.10;;;31.30;38.60;;;;;;4993157;28;20624;-64
2022/08/12 14:45:48;;;;;;;1.80;1.57;;;31.40;38.10;;;;;;4993743;28;20445;-64
2022/08/12 14:48:19;;;;;;;2.80;2.03;;;31.30;37.20;;;;;;4993660;28;20477;-63
2022/08/12 14:50:46;;;;;;;2.50;2.30;;;31.10;37.60;;;;;;4993704;28;20487;-63
2022/08/12 14:53:16;;;;;;;4.77;3.50;;;31.00;37.10;;;;;;4993684;28;20444;-63
2022/08/12 14:55:44;;;;;;;1.90;1.80;;;30.90;37.70;;;;;;4993638;28;20453;-63
2022/08/12 14:58:11;;;;;;;3.07;1.60;;;30.80;37.10;;;;;;4993261;28;20967;-64
2022/08/12 15:03:30;;;;;;;2.20;1.80;;;30.80;37.20;;;;;;4993707;28;20536;-63
2022/08/12 15:05:58;;;;;;;3.03;1.43;;;30.80;37.60;;;;;;4993647;28;20442;-64
2022/08/12 15:08:27;;;;;;;3.10;2.00;;;30.70;38.50;;;;;;4993404;28;20477;-64
2022/08/12 15:10:55;;;;;;;1.40;1.40;;;30.70;38.40;;;;;;4993514;28;20478;-64
2022/08/12 15:13:23;;;;;;;2.27;2.10;;;30.70;38.00;;;;;;4993603;28;20821;-64
2022/08/12 15:15:51;;;;;;;1.60;1.20;;;30.60;37.80;;;;;;4993240;28;20457;-64
2022/08/12 15:18:20;;;;;;;1.40;1.40;;;30.70;38.50;;;;;;4993392;28;20448;-64
2022/08/12 15:20:49;;;;;;;7.20;1.60;;;30.80;38.30;;;;;;4993255;28;20469;-64
2022/08/12 15:23:26;;;;;;;4.83;1.60;;;31.10;39.10;;;;;;4993412;28;20453;-64
2022/08/12 15:25:54;;;;;;;7.30;1.50;;;31.30;38.10;;;;;;4994297;28;20453;-64
2022/08/12 15:28:22;;;;;;;1.37;1.27;;;31.60;36.80;;;;;;4996781;28;20477;-64
2022/08/12 15:30:51;;;;;;;1.50;1.50;;;31.70;36.70;;;;;;4996790;28;20474;-64
2022/08/12 15:33:20;;;;;;;3.57;1.60;;;31.70;36.80;;;;;;4996807;28;20489;-64
2022/08/12 15:35:49;;;;;;;3.10;1.80;;;31.80;36.90;;;;;;4996671;28;20544;-64
2022/08/12 15:38:18;;;;;;;8.20;1.80;;;31.80;36.90;;;;;;4996405;28;20450;-64
2022/08/12 15:40:48;;;;;;;7.63;2.07;;;31.90;36.60;;;;;;4996461;28;20565;-64
2022/08/12 15:43:15;;;;;;;4.87;1.80;;;31.80;37.10;;;;;;4996506;28;20487;-64
2022/08/12 15:45:43;;;;;;;6.27;2.17;;;31.70;37.20;;;;;;4996528;28;20544;-64
2022/08/12 15:48:10;;;;;;;1.40;1.30;;;31.60;36.80;;;;;;4996178;28;20869;-64
2022/08/12 15:50:38;;;;;;;1.70;1.47;;;31.50;36.90;;;;;;4996223;28;20853;-64
2022/08/12 15:53:07;;;;;;;4.53;1.67;;;31.40;36.80;;;;;;4996777;28;20460;-63
2022/08/12 15:55:35;;;;;;;1.80;1.70;;;31.30;37.40;;;;;;4996102;28;20454;-64
2022/08/12 15:58:01;;;;;;;3.93;1.50;;;31.10;37.80;;;;;;4996225;28;20441;-63
2022/08/12 16:00:30;;;;;;;1.93;1.83;;;31.00;37.30;;;;;;4995862;28;20458;-63
2022/08/12 16:02:58;;;;;;;5.00;2.20;;;30.80;38.00;;;;;;5000466;28;20438;-64
2022/08/12 16:05:27;;;;;;;5.40;4.10;;;30.60;37.90;;;;;;5002837;28;20491;-64
2022/08/12 16:07:56;;;;;;;6.40;2.70;;;30.40;37.80;;;;;;5000848;28;20480;-64
2022/08/12 16:10:26;;;;;;;4.30;2.70;;;30.40;38.90;;;;;;4996176;28;20522;-64
2022/08/12 16:12:56;;;;;;;15.13;13.83;;;30.40;38.90;;;;;;4996154;28;20449;-64
2022/08/12 16:15:24;;;;;;;2.00;1.90;;;30.30;38.40;;;;;;4996055;28;20438;-64
2022/08/12 16:17:52;;;;;;;7.47;2.03;;;30.30;38.60;;;;;;4996220;28;20465;-63
2022/08/12 16:20:23;;;;;;;4.20;2.40;;;30.20;38.90;;;;;;4996297;28;20458;-65
2022/08/12 16:22:51;;;;;;;8.60;2.70;;;30.10;38.80;;;;;;4996264;28;20441;-64
2022/08/12 16:25:19;;;;;;;4.30;3.43;;;30.10;38.80;;;;;;4996750;28;20454;-65
2022/08/12 16:27:50;;;;;;;4.50;3.30;;;30.00;38.50;;;;;;4996602;28;20453;-64
2022/08/12 16:30:17;;;;;;;3.40;2.70;;;30.00;38.50;;;;;;4996472;28;20446;-64
2022/08/12 16:32:44;;;;;;;5.47;3.90;;;29.80;38.50;;;;;;4996476;28;20798;-64
2022/08/12 16:35:11;;;;;;;3.70;1.80;;;29.70;39.00;;;;;;4996081;28;20462;-64
2022/08/12 16:37:39;;;;;;;2.47;2.30;;;29.50;39.50;;;;;;4995478;28;20937;-65
2022/08/12 16:40:07;;;;;;;4.90;4.50;;;29.40;39.80;;;;;;4995790;28;20454;-64
2022/08/12 16:42:37;;;;;;;5.93;3.80;;;29.30;40.10;;;;;;4995784;28;20552;-65
2022/08/12 16:45:11;;;;;;;4.60;4.20;;;29.10;39.80;;;;;;4997051;28;20461;-65
2022/08/12 16:47:38;;;;;;;3.97;3.57;;;29.00;40.20;;;;;;4996601;28;20533;-65
2022/08/12 16:50:07;;;;;;;4.63;4.30;;;28.90;40.20;;;;;;4995234;28;20477;-64
2022/08/12 16:52:35;;;;;;;5.03;4.57;;;28.80;40.60;;;;;;4995885;28;20524;-64
2022/08/12 16:55:02;;;;;;;9.90;9.10;;;28.70;40.90;;;;;;4997052;28;20627;-64
2022/08/12 16:57:29;;;;;;;14.40;13.10;;;28.60;40.80;;;;;;4996406;28;20480;-65
2022/08/12 16:59:56;;;;;;;4.47;4.03;;;28.50;41.00;;;;;;4996176;28;21012;-64
2022/08/12 17:02:24;;;;;;;4.43;4.13;;;28.30;40.80;;;;;;4996317;28;20489;-65
2022/08/12 17:04:51;;;;;;;2.73;2.53;;;28.20;40.80;;;;;;4995993;28;20894;-65
2022/08/12 17:07:19;;;;;;;3.47;3.27;;;28.10;40.90;;;;;;4996000;28;20457;-65
2022/08/12 17:09:48;;;;;;;3.30;2.50;;;28.00;41.30;;;;;;4995685;28;20481;-65
2022/08/12 17:12:15;;;;;;;5.40;4.93;;;27.90;41.60;;;;;;4995370;28;20477;-65
2022/08/12 17:14:42;;;;;;;4.00;3.60;;;27.90;41.90;;;;;;4995254;28;20458;-65
2022/08/12 17:17:10;;;;;;;2.20;2.00;;;27.90;42.30;;;;;;4995178;28;20537;-65
2022/08/12 17:19:39;;;;;;;4.50;1.60;;;27.90;42.60;;;;;;4994973;28;20456;-62
2022/08/12 17:22:07;;;;;;;4.33;2.37;;;27.90;41.90;;;;;;4994517;28;20477;-62